Terminal Aerodrome Forecast
Issued by NWS

Home | Current Version | Previous Version | Text Only | Print | Product List | Glossary On
Versions: 1 2 3 4 5 6 7 8 9 10 11 12 13
000
FTUS45 KRIW 231100
TAFWRL
TAF
KWRL 231140Z 2312/2412 VRB05KT P6SM -SHRA SCT025 OVC050
      TEMPO 2312/2314 4SM RA BR BKN015
     FM231500 VRB05KT P6SM SCT060 BKN150
     FM232200 35014G24KT P6SM VCSH BKN050
     FM240400 34010KT P6SM VCSH SCT020 OVC040=

USA.gov is the U.S. government's official web portal to all federal, state and local government web resources and services.